Time;durP1;ratioP1;P1;durP2;ratioP2;P2;SDS_P1;SDS_P2;PMS_P1;PMS_P2;Temp;Humidity;BMP_temperature;BMP_pressure;BME280_temperature;BME280_humidity;BME280_pressure;Samples;Min_cycle;Max_cycle;Signal;HPM_P1;HPM_P2
2022/03/30 00:00:35;;;;;;;5.90;4.50;;;14.90;59.00;;;;;;5024822;28;20049;-69
2022/03/30 00:03:04;;;;;;;6.05;4.40;;;14.80;51.40;;;;;;5032659;28;20048;-67
2022/03/30 00:05:31;;;;;;;7.38;4.80;;;14.50;59.00;;;;;;5032920;28;20053;-69
2022/03/30 00:07:58;;;;;;;7.78;4.65;;;;;;;;;;5031323;28;20472;-70
2022/03/30 00:10:25;;;;;;;5.85;4.22;;;14.90;53.90;;;;;;5032711;28;20049;-69
2022/03/30 00:12:51;;;;;;;6.55;4.18;;;15.10;59.00;;;;;;5031604;28;20059;-69
2022/03/30 00:15:18;;;;;;;6.45;4.40;;;14.80;59.10;;;;;;5029530;28;20053;-70
2022/03/30 00:17:45;;;;;;;6.78;4.47;;;14.80;56.60;;;;;;5032427;28;20407;-70
2022/03/30 00:20:13;;;;;;;6.60;4.47;;;14.80;59.00;;;;;;5032261;28;20053;-70
2022/03/30 00:22:40;;;;;;;7.05;4.75;;;14.80;59.10;;;;;;5032273;28;20124;-69
2022/03/30 00:25:08;;;;;;;7.43;4.43;;;14.80;51.40;;;;;;5031824;28;20404;-68
2022/03/30 00:27:35;;;;;;;5.85;3.97;;;;;;;;;;5031038;28;20107;-68
2022/03/30 00:30:02;;;;;;;6.30;4.57;;;;;;;;;;5030223;28;20055;-68
2022/03/30 00:32:29;;;;;;;6.68;4.40;;;;;;;;;;5032240;28;20049;-67
2022/03/30 00:34:56;;;;;;;6.70;4.45;;;14.40;58.60;;;;;;5032484;28;20053;-67
2022/03/30 00:37:24;;;;;;;5.63;4.28;;;14.80;51.40;;;;;;5031844;28;20051;-68
2022/03/30 00:39:53;;;;;;;5.32;4.03;;;;;;;;;;5031797;28;20403;-68
2022/03/30 00:42:21;;;;;;;6.15;4.43;;;;;;;;;;5030818;28;20496;-67
2022/03/30 00:44:48;;;;;;;5.93;4.38;;;;;;;;;;5031998;28;20053;-68
2022/03/30 00:47:15;;;;;;;7.03;4.07;;;14.90;59.20;;;;;;5029170;28;20514;-67
2022/03/30 00:49:42;;;;;;;6.50;4.20;;;;;;;;;;5032109;28;20054;-68
2022/03/30 00:52:09;;;;;;;5.53;4.07;;;14.80;59.10;;;;;;5031940;28;20056;-67
2022/03/30 00:54:37;;;;;;;5.28;3.90;;;14.80;51.30;;;;;;5032207;28;20057;-68
2022/03/30 00:57:05;;;;;;;6.45;4.20;;;14.80;51.40;;;;;;5031997;28;20050;-68
2022/03/30 00:59:33;;;;;;;6.53;4.50;;;;;;;;;;5030249;28;20469;-68
2022/03/30 01:02:00;;;;;;;5.85;4.03;;;;;;;;;;5031740;28;20048;-67
2022/03/30 01:04:27;;;;;;;5.50;3.88;;;14.90;56.10;;;;;;5029251;28;20049;-68
2022/03/30 01:06:53;;;;;;;6.78;4.35;;;14.70;58.80;;;;;;5030677;28;20063;-67
2022/03/30 01:09:21;;;;;;;5.63;3.90;;;;;;;;;;5031758;28;20075;-68
2022/03/30 01:11:49;;;;;;;5.63;3.80;;;14.80;58.80;;;;;;5030506;28;20061;-67
2022/03/30 01:14:16;;;;;;;8.00;4.05;;;14.80;58.80;;;;;;5031614;28;20514;-68
2022/03/30 01:16:43;;;;;;;6.35;3.75;;;;;;;;;;5030738;28;20060;-68
2022/03/30 01:19:10;;;;;;;5.90;3.67;;;14.90;59.20;;;;;;5028754;28;20049;-67
2022/03/30 01:21:39;;;;;;;6.28;3.90;;;14.50;52.40;;;;;;5031571;28;20049;-68
2022/03/30 01:24:05;;;;;;;5.95;4.10;;;14.80;58.90;;;;;;5030550;28;20054;-67
2022/03/30 01:26:32;;;;;;;4.97;3.47;;;14.40;58.90;;;;;;5031467;28;20051;-67
2022/03/30 01:28:59;;;;;;;7.72;4.10;;;14.80;57.30;;;;;;5030183;28;20056;-68
2022/03/30 01:34:10;;;;;;;5.30;3.55;;;14.80;59.10;;;;;;5028664;28;20054;-67
2022/03/30 01:36:38;;;;;;;6.25;3.75;;;14.90;59.20;;;;;;5034039;28;20041;-68
2022/03/30 01:39:05;;;;;;;5.28;3.58;;;;;;;;;;5032422;28;20053;-67
2022/03/30 01:41:33;;;;;;;5.38;3.83;;;;;;;;;;5033675;28;20049;-67
2022/03/30 01:43:59;;;;;;;5.68;3.75;;;14.50;54.00;;;;;;5035361;28;20107;-68
2022/03/30 01:46:26;;;;;;;5.15;3.40;;;14.80;58.80;;;;;;5035527;28;20484;-68
2022/03/30 01:48:53;;;;;;;5.53;3.70;;;14.70;58.80;;;;;;5033747;28;20054;-67
2022/03/30 01:51:20;;;;;;;5.57;3.78;;;;;;;;;;5033404;28;20046;-69
2022/03/30 01:53:48;;;;;;;5.70;3.90;;;14.70;51.20;;;;;;5035123;28;20132;-67
2022/03/30 01:56:15;;;;;;;4.50;3.22;;;14.80;59.00;;;;;;5035432;28;20057;-68
2022/03/30 01:58:44;;;;;;;5.38;3.58;;;14.80;58.80;;;;;;5034893;28;20441;-67
2022/03/30 02:01:11;;;;;;;6.00;3.70;;;14.70;58.80;;;;;;5033734;28;20053;-68
2022/03/30 02:03:38;;;;;;;5.57;3.53;;;;;;;;;;5034920;28;20467;-68
2022/03/30 02:06:06;;;;;;;5.82;3.70;;;14.70;58.50;;;;;;5033959;28;20484;-68
2022/03/30 02:08:33;;;;;;;4.75;3.30;;;15.40;59.00;;;;;;5028771;28;20133;-67
2022/03/30 02:11:01;;;;;;;4.85;3.30;;;14.80;58.80;;;;;;5015212;28;20056;-68
2022/03/30 02:13:28;;;;;;;5.85;3.40;;;;;;;;;;5013780;28;20050;-67
2022/03/30 02:15:55;;;;;;;5.47;3.70;;;14.70;52.50;;;;;;5013925;28;20053;-68
2022/03/30 02:18:21;;;;;;;5.88;3.83;;;14.80;59.00;;;;;;5014117;28;20412;-68
2022/03/30 02:20:48;;;;;;;5.53;3.28;;;14.70;58.80;;;;;;5014821;28;20045;-68
2022/03/30 02:23:15;;;;;;;5.25;3.65;;;;;;;;;;5016008;28;20049;-69
2022/03/30 02:25:42;;;;;;;6.28;3.35;;;14.70;59.00;;;;;;5013747;28;20065;-68
2022/03/30 02:28:10;;;;;;;6.45;3.70;;;14.60;54.10;;;;;;5014524;28;20073;-67
2022/03/30 02:30:37;;;;;;;4.72;3.53;;;14.90;59.10;;;;;;5013396;28;20057;-67
2022/03/30 02:33:03;;;;;;;6.80;4.18;;;14.80;59.00;;;;;;5014885;28;20068;-68
2022/03/30 02:35:31;;;;;;;5.13;3.53;;;14.90;58.80;;;;;;5014661;28;20050;-67
2022/03/30 02:37:58;;;;;;;5.88;3.70;;;14.70;56.20;;;;;;5014680;28;20112;-68
2022/03/30 02:40:25;;;;;;;5.70;3.72;;;14.70;58.70;;;;;;5015271;28;20049;-67
2022/03/30 02:42:52;;;;;;;5.80;3.60;;;14.80;57.80;;;;;;5013160;28;20049;-68
2022/03/30 02:45:20;;;;;;;5.68;3.88;;;14.70;59.00;;;;;;5013421;28;20514;-67
2022/03/30 02:50:31;;;;;;;5.00;3.58;;;14.40;58.90;;;;;;5012946;28;20133;-67
2022/03/30 02:52:58;;;;;;;5.05;3.45;;;14.50;55.80;;;;;;5013425;28;20142;-68
2022/03/30 02:55:25;;;;;;;6.05;3.67;;;14.90;58.80;;;;;;5015557;28;20417;-67
2022/03/30 02:57:52;;;;;;;6.25;3.60;;;;;;;;;;5014252;28;20053;-68
2022/03/30 03:00:20;;;;;;;5.63;3.58;;;14.80;57.30;;;;;;5014039;28;20058;-68
2022/03/30 03:02:47;;;;;;;5.28;3.55;;;14.40;58.60;;;;;;5014182;28;20050;-67
2022/03/30 03:05:14;;;;;;;5.32;3.33;;;14.70;58.70;;;;;;5014029;28;20064;-67
2022/03/30 03:07:41;;;;;;;5.20;3.70;;;;;;;;;;5014077;28;20053;-68
2022/03/30 03:10:09;;;;;;;6.13;3.58;;;14.70;57.30;;;;;;5012720;28;20128;-67
2022/03/30 03:12:36;;;;;;;4.43;3.45;;;14.70;59.00;;;;;;5014041;28;20132;-67
2022/03/30 03:15:03;;;;;;;5.65;3.55;;;;;;;;;;5014239;28;20053;-68
2022/03/30 03:17:31;;;;;;;5.57;3.30;;;15.10;58.90;;;;;;5013861;28;20052;-67
2022/03/30 03:19:58;;;;;;;6.20;3.78;;;14.70;58.80;;;;;;5012473;28;20481;-67
2022/03/30 03:22:24;;;;;;;5.35;3.45;;;14.70;58.70;;;;;;5013679;28;20053;-67
2022/03/30 03:24:51;;;;;;;4.72;3.30;;;14.80;56.90;;;;;;5012772;28;20057;-68
2022/03/30 03:27:18;;;;;;;5.57;3.47;;;;;;;;;;5014939;28;20129;-68
2022/03/30 03:29:45;;;;;;;7.25;3.65;;;;;;;;;;5012098;28;20092;-68
2022/03/30 03:32:12;;;;;;;5.20;3.25;;;14.70;58.90;;;;;;5012417;28;20064;-67
2022/03/30 03:34:40;;;;;;;5.53;3.65;;;14.70;51.10;;;;;;5013903;28;20045;-67
2022/03/30 03:37:08;;;;;;;5.05;3.55;;;;;;;;;;5012500;28;20064;-68
2022/03/30 03:39:34;;;;;;;5.65;3.70;;;14.80;59.00;;;;;;5012019;28;20135;-67
2022/03/30 03:42:02;;;;;;;7.32;3.83;;;;;;;;;;5012272;28;20453;-68
2022/03/30 03:44:28;;;;;;;9.40;3.78;;;14.70;58.60;;;;;;5026290;28;20132;-68
2022/03/30 03:46:55;;;;;;;7.07;3.90;;;14.80;59.00;;;;;;5033051;28;20495;-67
2022/03/30 03:49:22;;;;;;;5.65;3.58;;;;;;;;;;5031862;28;20123;-68
2022/03/30 03:51:50;;;;;;;5.22;3.75;;;14.70;51.10;;;;;;5032874;28;20389;-67
2022/03/30 03:54:17;;;;;;;4.85;3.80;;;14.70;59.00;;;;;;5032603;28;20049;-67
2022/03/30 03:56:43;;;;;;;5.18;3.65;;;14.70;58.60;;;;;;5032926;28;20059;-67
2022/03/30 03:59:11;;;;;;;5.05;3.38;;;14.80;55.40;;;;;;5029120;28;20049;-67
2022/03/30 04:01:37;;;;;;;5.60;3.25;;;14.60;59.00;;;;;;5031481;28;20057;-67
2022/03/30 04:04:05;;;;;;;5.45;3.60;;;;;;;;;;5032756;28;20045;-68
2022/03/30 04:06:31;;;;;;;5.88;3.70;;;14.70;58.50;;;;;;5032628;28;20053;-67
2022/03/30 04:08:59;;;;;;;8.73;3.85;;;14.70;51.10;;;;;;5031610;28;20403;-69
2022/03/30 04:11:26;;;;;;;4.30;3.45;;;;;;;;;;5032138;28;20049;-67
2022/03/30 04:13:53;;;;;;;5.00;3.55;;;14.70;56.00;;;;;;5032427;28;20041;-67
2022/03/30 04:16:20;;;;;;;6.43;3.95;;;15.30;59.00;;;;;;5028626;28;20137;-67
2022/03/30 04:18:47;;;;;;;4.95;3.40;;;;;;;;;;5032176;28;20050;-67
2022/03/30 04:21:13;;;;;;;4.95;3.58;;;14.70;58.60;;;;;;5031212;28;20061;-68
2022/03/30 04:23:40;;;;;;;5.50;3.53;;;14.40;58.80;;;;;;5031268;28;20057;-67
2022/03/30 04:26:10;;;;;;;5.57;3.40;;;14.60;51.80;;;;;;5031340;28;20059;-68
2022/03/30 04:28:40;;;;;;;5.57;3.80;;;;;;;;;;5030942;28;20058;-68
2022/03/30 04:31:07;;;;;;;6.32;3.40;;;;;;;;;;5030149;28;20057;-69
2022/03/30 04:33:34;;;;;;;5.80;3.63;;;14.60;58.90;;;;;;5031203;28;20083;-67
2022/03/30 04:36:01;;;;;;;5.30;3.35;;;14.70;58.70;;;;;;5031250;28;20053;-67
2022/03/30 04:38:28;;;;;;;5.03;3.45;;;;;;;;;;5031003;28;20484;-68
2022/03/30 04:40:55;;;;;;;5.20;3.33;;;;;;;;;;5030244;28;20060;-68
2022/03/30 04:43:23;;;;;;;5.15;3.63;;;14.70;58.60;;;;;;5032280;28;20385;-67
2022/03/30 04:45:50;;;;;;;5.45;3.58;;;14.40;58.40;;;;;;5032094;28;20046;-68
2022/03/30 04:48:17;;;;;;;5.88;3.35;;;14.70;58.90;;;;;;5029362;28;20061;-67
2022/03/30 04:50:44;;;;;;;6.32;3.53;;;;;;;;;;5030389;28;20056;-68
2022/03/30 04:53:10;;;;;;;4.82;3.80;;;14.80;58.60;;;;;;5032234;28;20060;-68
2022/03/30 04:55:37;;;;;;;5.43;3.30;;;14.50;58.50;;;;;;5031858;28;20055;-67
2022/03/30 04:58:04;;;;;;;6.68;3.58;;;;;;;;;;5032140;28;20057;-67
2022/03/30 05:00:32;;;;;;;6.60;3.22;;;14.60;58.80;;;;;;5027210;28;20103;-67
2022/03/30 05:02:59;;;;;;;5.20;3.65;;;14.60;58.70;;;;;;5017792;28;20057;-68
2022/03/30 05:05:27;;;;;;;5.47;3.30;;;14.60;58.50;;;;;;5031842;28;20045;-67
2022/03/30 05:07:54;;;;;;;5.40;3.50;;;14.60;58.80;;;;;;5031688;28;20080;-67
2022/03/30 05:10:21;;;;;;;5.57;3.25;;;;;;;;;;5029750;28;20060;-68
2022/03/30 05:12:47;;;;;;;4.28;2.90;;;14.90;58.60;;;;;;5030637;28;20075;-67
2022/03/30 05:15:14;;;;;;;4.22;3.30;;;;;;;;;;5019768;28;20046;-67
2022/03/30 05:17:44;;;;;;;5.90;3.20;;;14.90;58.90;;;;;;5010572;28;20056;-67
2022/03/30 05:20:12;;;;;;;4.35;2.80;;;14.90;57.30;;;;;;5010782;28;20049;-68
2022/03/30 05:22:39;;;;;;;4.13;3.00;;;;;;;;;;5011806;28;20049;-68
2022/03/30 05:25:07;;;;;;;6.47;3.03;;;14.50;58.40;;;;;;5011954;28;20049;-68
2022/03/30 05:27:34;;;;;;;4.80;2.90;;;14.70;58.60;;;;;;5010781;28;20064;-67
2022/03/30 05:30:02;;;;;;;4.57;2.83;;;14.60;58.70;;;;;;5010803;28;20053;-67
2022/03/30 05:32:29;;;;;;;4.53;3.13;;;;;;;;;;5030452;28;20050;-68
2022/03/30 05:34:57;;;;;;;6.40;2.90;;;14.70;58.90;;;;;;5030251;28;20050;-67
2022/03/30 05:37:25;;;;;;;4.57;2.70;;;;;;;;;;5031771;28;20416;-68
2022/03/30 05:39:52;;;;;;;4.72;2.80;;;;;;;;;;5029789;28;20057;-67
2022/03/30 05:42:20;;;;;;;5.60;2.60;;;;;;;;;;5031423;28;20053;-68
2022/03/30 05:44:46;;;;;;;4.97;2.65;;;14.60;58.60;;;;;;5031298;28;20133;-67
2022/03/30 05:47:15;;;;;;;3.40;2.42;;;;;;;;;;5016390;28;20057;-68
2022/03/30 05:49:42;;;;;;;3.97;2.55;;;;;;;;;;5011429;28;20091;-68
2022/03/30 05:52:11;;;;;;;3.13;2.40;;;14.70;58.90;;;;;;5010212;28;20060;-69
2022/03/30 05:54:38;;;;;;;3.10;2.45;;;14.70;58.70;;;;;;5011866;28;20053;-69
2022/03/30 05:57:05;;;;;;;4.25;2.53;;;14.20;58.40;;;;;;5010445;28;20523;-68
2022/03/30 05:59:33;;;;;;;4.40;2.60;;;14.60;51.00;;;;;;5011519;28;20054;-68
2022/03/30 06:01:59;;;;;;;3.53;2.30;;;14.50;58.60;;;;;;5011405;28;20060;-69
2022/03/30 06:04:26;;;;;;;3.25;2.20;;;;;;;;;;5011573;28;20416;-69
2022/03/30 06:06:53;;;;;;;3.03;2.30;;;14.30;58.50;;;;;;5011433;28;20068;-67
2022/03/30 06:09:21;;;;;;;3.53;2.20;;;14.60;58.60;;;;;;5010373;28;20064;-67
2022/03/30 06:11:48;;;;;;;3.05;2.20;;;;;;;;;;5009968;28;20085;-67
2022/03/30 06:14:15;;;;;;;4.30;2.40;;;14.50;58.80;;;;;;5011442;28;20052;-67
2022/03/30 06:16:42;;;;;;;2.72;2.13;;;14.70;58.70;;;;;;5010197;28;20064;-66
2022/03/30 06:19:09;;;;;;;4.13;2.42;;;;;;;;;;5012380;28;20508;-68
2022/03/30 06:21:36;;;;;;;3.28;2.20;;;14.70;58.90;;;;;;5010499;28;20046;-68
2022/03/30 06:24:02;;;;;;;4.15;2.40;;;14.60;58.90;;;;;;5014567;28;20053;-69
2022/03/30 06:26:30;;;;;;;3.47;2.05;;;14.70;53.70;;;;;;5013836;28;20056;-68
2022/03/30 06:28:57;;;;;;;3.20;2.15;;;14.30;54.90;;;;;;5015008;28;20124;-69
2022/03/30 06:31:24;;;;;;;3.97;2.35;;;14.50;58.50;;;;;;5013325;28;20058;-69
2022/03/30 06:33:50;;;;;;;3.53;2.15;;;14.70;58.90;;;;;;5013380;28;20481;-69
2022/03/30 06:36:17;;;;;;;3.25;2.15;;;14.80;53.00;;;;;;5017603;28;20144;-68
2022/03/30 06:38:44;;;;;;;4.50;2.25;;;14.30;58.20;;;;;;5017635;28;20054;-69
2022/03/30 06:41:12;;;;;;;3.58;2.15;;;14.60;58.20;;;;;;5014161;28;20053;-68
2022/03/30 06:43:42;;;;;;;4.10;2.42;;;14.70;58.80;;;;;;5014578;28;20137;-68
2022/03/30 06:46:09;;;;;;;3.97;2.53;;;;;;;;;;5013415;28;20081;-69
2022/03/30 06:48:36;;;;;;;3.63;2.25;;;;;;;;;;5013332;28;20064;-69
2022/03/30 06:51:03;;;;;;;4.85;2.53;;;14.70;58.50;;;;;;5017229;28;20053;-68
2022/03/30 06:53:30;;;;;;;3.00;2.00;;;14.30;56.10;;;;;;5033872;28;20506;-68
2022/03/30 06:55:57;;;;;;;4.10;2.30;;;14.80;58.60;;;;;;5033079;28;20136;-68
2022/03/30 06:58:23;;;;;;;3.33;2.30;;;14.80;58.70;;;;;;5032954;28;20057;-68
2022/03/30 07:00:52;;;;;;;4.13;2.10;;;14.90;57.00;;;;;;5033748;28;20045;-68
2022/03/30 07:03:20;;;;;;;4.30;2.20;;;;;;;;;;5034169;28;20049;-69
2022/03/30 07:05:46;;;;;;;5.22;2.55;;;14.80;58.30;;;;;;5033935;28;20077;-69
2022/03/30 07:10:58;;;;;;;3.67;2.05;;;14.80;58.70;;;;;;5026300;28;20041;-69
2022/03/30 07:13:25;;;;;;;5.13;2.45;;;;;;;;;;5018989;28;20067;-69
2022/03/30 07:15:53;;;;;;;3.80;2.03;;;14.90;58.50;;;;;;5024689;28;20052;-69
2022/03/30 07:18:20;;;;;;;4.60;2.38;;;14.90;58.50;;;;;;5022801;28;20049;-70
2022/03/30 07:20:47;;;;;;;17.38;6.90;;;14.90;52.00;;;;;;5032093;28;20045;-69
2022/03/30 07:23:14;;;;;;;10.82;4.82;;;15.00;58.60;;;;;;5025504;28;20377;-69
2022/03/30 07:25:42;;;;;;;15.75;7.10;;;14.90;58.20;;;;;;5013769;28;20057;-69
2022/03/30 07:28:09;;;;;;;13.75;6.55;;;;;;;;;;5013694;28;20497;-69
2022/03/30 07:30:37;;;;;;;10.05;4.43;;;14.80;58.10;;;;;;5011931;28;20573;-69
2022/03/30 07:33:05;;;;;;;11.40;4.88;;;15.00;54.40;;;;;;5012644;28;20046;-69
2022/03/30 07:35:33;;;;;;;10.20;5.13;;;14.80;57.30;;;;;;5012481;28;20057;-68
2022/03/30 07:38:01;;;;;;;12.20;4.70;;;;;;;;;;5012530;28;20080;-68
2022/03/30 07:40:29;;;;;;;11.73;4.93;;;15.30;53.60;;;;;;5014127;28;20093;-68
2022/03/30 07:42:56;;;;;;;10.27;4.50;;;15.40;58.00;;;;;;5013404;28;20149;-68
2022/03/30 07:45:24;;;;;;;9.57;4.72;;;;;;;;;;5013496;28;20390;-69
2022/03/30 07:47:51;;;;;;;8.50;4.15;;;15.50;58.40;;;;;;5023022;28;20048;-68
2022/03/30 07:50:19;;;;;;;9.23;4.40;;;15.50;50.70;;;;;;5022849;28;20485;-69
2022/03/30 07:52:46;;;;;;;10.85;4.45;;;;;;;;;;5031666;28;20057;-69
2022/03/30 07:55:13;;;;;;;11.32;4.20;;;15.60;57.80;;;;;;5028397;28;20046;-70
2022/03/30 07:57:42;;;;;;;9.32;4.22;;;15.00;57.80;;;;;;5016743;28;20052;-70
2022/03/30 08:00:10;;;;;;;12.00;5.03;;;15.60;58.30;;;;;;5013100;28;20130;-69
2022/03/30 08:02:37;;;;;;;9.88;4.10;;;15.70;58.40;;;;;;5011675;28;20120;-69
2022/03/30 08:05:04;;;;;;;9.68;4.15;;;14.90;57.70;;;;;;5012029;28;20511;-69
2022/03/30 08:07:34;;;;;;;9.40;4.18;;;15.80;58.20;;;;;;5011758;28;20094;-69
2022/03/30 08:10:01;;;;;;;8.80;3.90;;;15.70;58.40;;;;;;5012133;28;20050;-69
2022/03/30 08:12:28;;;;;;;11.23;4.32;;;15.60;58.10;;;;;;5012486;28;20058;-68
2022/03/30 08:14:55;;;;;;;8.90;4.40;;;;;;;;;;5011705;28;20058;-67
2022/03/30 08:17:24;;;;;;;8.07;3.75;;;15.80;58.30;;;;;;5012691;28;20548;-68
2022/03/30 08:19:51;;;;;;;11.57;4.35;;;;;;;;;;5011270;28;20057;-67
2022/03/30 08:22:28;;;;;;;8.15;3.67;;;15.90;56.90;;;;;;5012580;28;20054;-68
2022/03/30 08:24:57;;;;;;;8.00;4.20;;;15.80;56.50;;;;;;5011537;28;20496;-68
2022/03/30 08:27:25;;;;;;;10.13;4.55;;;15.70;58.40;;;;;;5016087;28;20108;-68
2022/03/30 08:29:52;;;;;;;7.60;3.72;;;15.90;58.50;;;;;;5028274;28;20140;-68
2022/03/30 08:32:21;;;;;;;9.02;3.92;;;15.20;52.20;;;;;;5022619;28;20407;-67
2022/03/30 08:34:47;;;;;;;7.70;3.53;;;16.00;54.20;;;;;;5012325;28;20132;-67
2022/03/30 08:37:14;;;;;;;7.43;3.70;;;15.90;58.40;;;;;;5010762;28;20052;-68
2022/03/30 08:39:41;;;;;;;7.82;3.42;;;16.50;58.50;;;;;;5012332;28;20124;-68
2022/03/30 08:42:10;;;;;;;8.65;3.53;;;16.70;52.80;;;;;;5011166;28;20133;-67
2022/03/30 08:44:37;;;;;;;6.70;3.13;;;15.90;58.40;;;;;;5016595;28;20103;-67
2022/03/30 08:47:04;;;;;;;6.78;3.50;;;16.00;58.10;;;;;;5027538;28;20046;-67
2022/03/30 08:49:33;;;;;;;6.60;3.38;;;16.10;58.20;;;;;;5027439;28;20092;-68
2022/03/30 08:52:00;;;;;;;5.80;3.08;;;15.40;57.80;;;;;;5031068;28;20491;-69
2022/03/30 08:54:27;;;;;;;6.38;2.88;;;16.80;58.80;;;;;;5027339;28;20053;-70
2022/03/30 08:56:54;;;;;;;4.90;2.65;;;;;;;;;;5014918;28;20050;-70
2022/03/30 08:59:23;;;;;;;4.93;2.60;;;16.10;52.30;;;;;;5013045;28;20085;-69
2022/03/30 09:01:50;;;;;;;5.28;2.75;;;15.90;58.60;;;;;;5031255;28;20602;-68
2022/03/30 09:04:18;;;;;;;6.22;2.92;;;16.00;58.30;;;;;;5030622;28;20053;-69
2022/03/30 09:06:46;;;;;;;5.63;2.70;;;16.10;58.60;;;;;;5031972;28;20054;-68
2022/03/30 09:09:14;;;;;;;4.57;2.42;;;16.80;58.60;;;;;;5031963;28;20056;-69
2022/03/30 09:11:45;;;;;;;5.57;2.85;;;16.10;58.60;;;;;;5030272;28;20061;-68
2022/03/30 09:14:13;;;;;;;6.00;2.70;;;16.10;51.40;;;;;;5021890;28;20511;-69
2022/03/30 09:16:42;;;;;;;6.35;2.70;;;16.10;51.40;;;;;;5015358;28;20058;-69
2022/03/30 09:19:09;;;;;;;5.57;2.78;;;16.10;58.70;;;;;;5011950;28;20046;-69
2022/03/30 09:21:46;;;;;;;4.97;2.45;;;16.20;51.50;;;;;;5011671;28;20050;-69
2022/03/30 09:24:13;;;;;;;5.43;2.58;;;;;;;;;;5021573;28;20046;-69
2022/03/30 09:26:40;;;;;;;4.63;2.72;;;15.40;58.40;;;;;;5011072;28;20064;-70
2022/03/30 09:29:08;;;;;;;4.80;2.20;;;15.40;58.30;;;;;;5025640;28;20060;-67
2022/03/30 09:31:35;;;;;;;4.35;2.40;;;16.20;58.80;;;;;;5031475;28;20054;-67
2022/03/30 09:34:03;;;;;;;4.53;2.20;;;16.20;58.60;;;;;;5031261;28;20063;-67
2022/03/30 09:36:32;;;;;;;6.43;2.70;;;16.30;58.60;;;;;;5031763;28;20385;-68
2022/03/30 09:38:58;;;;;;;4.30;2.10;;;16.30;58.70;;;;;;5030432;28;20475;-67
2022/03/30 09:41:25;;;;;;;5.18;2.30;;;;;;;;;;5028470;28;20053;-69
2022/03/30 09:44:02;;;;;;;3.95;2.33;;;16.90;56.90;;;;;;5040948;28;20403;-70
2022/03/30 09:46:29;;;;;;;4.72;2.40;;;15.90;58.50;;;;;;5013391;28;20066;-66
2022/03/30 09:48:56;;;;;;;3.75;2.03;;;16.70;59.00;;;;;;5010616;28;20065;-68
2022/03/30 09:51:26;;;;;;;4.15;2.20;;;15.50;58.30;;;;;;5010390;28;20400;-67
2022/03/30 09:53:53;;;;;;;4.63;2.40;;;16.80;59.10;;;;;;5010780;28;20489;-67
2022/03/30 09:56:21;;;;;;;4.15;1.90;;;16.40;53.90;;;;;;5010427;28;20057;-66
2022/03/30 09:58:47;;;;;;;10.65;1.90;;;16.60;59.60;;;;;;5030529;28;20414;-67
2022/03/30 10:01:19;;;;;;;4.55;1.95;;;17.20;55.40;;;;;;5021936;28;20046;-67
2022/03/30 10:03:49;;;;;;;4.10;2.03;;;16.00;59.00;;;;;;5018401;28;20061;-67
2022/03/30 10:06:17;;;;;;;5.10;2.05;;;16.60;52.30;;;;;;5024758;28;20049;-67
2022/03/30 10:08:47;;;;;;;4.50;2.40;;;16.50;59.40;;;;;;5024012;28;20045;-67
2022/03/30 10:11:16;;;;;;;5.40;2.40;;;16.70;59.50;;;;;;5024223;28;20045;-67
2022/03/30 10:13:44;;;;;;;3.63;1.80;;;16.60;59.30;;;;;;5024054;28;20049;-68
2022/03/30 10:16:13;;;;;;;4.10;1.92;;;16.60;59.20;;;;;;5024685;28;20480;-67
2022/03/30 10:18:40;;;;;;;4.68;2.40;;;17.20;59.80;;;;;;5024543;28;20046;-68
2022/03/30 10:21:15;;;;;;;4.43;2.30;;;16.40;52.00;;;;;;5024026;28;20056;-69
2022/03/30 10:23:51;;;;;;;2.75;1.50;;;16.60;59.20;;;;;;5025108;28;20137;-67
2022/03/30 10:26:23;;;;;;;5.20;2.20;;;16.40;59.10;;;;;;5024574;28;20156;-68
2022/03/30 10:28:56;;;;;;;3.65;1.92;;;15.50;58.80;;;;;;5024305;28;20053;-67
2022/03/30 10:31:25;;;;;;;3.75;2.03;;;16.60;59.10;;;;;;5023604;28;20050;-67
2022/03/30 10:33:52;;;;;;;5.07;1.95;;;16.40;58.70;;;;;;5021922;28;20050;-67
2022/03/30 10:36:27;;;;;;;3.17;1.77;;;16.30;58.80;;;;;;5024457;28;20128;-68
2022/03/30 10:39:26;;;;;;;5.07;2.17;;;16.50;53.90;;;;;;5018724;28;20057;-68
2022/03/30 10:41:54;;;;;;;2.90;1.70;;;16.30;59.00;;;;;;5020581;28;20458;-68
2022/03/30 10:44:35;;;;;;;3.25;1.80;;;15.50;58.80;;;;;;5022291;28;20046;-67
2022/03/30 10:47:09;;;;;;;3.45;1.85;;;15.70;58.50;;;;;;5023697;28;20140;-68
2022/03/30 10:49:44;;;;;;;4.18;1.92;;;16.30;52.20;;;;;;5021133;28;20493;-68
2022/03/30 10:52:39;;;;;;;3.50;1.50;;;16.10;59.30;;;;;;5023551;28;20404;-69
2022/03/30 10:55:38;;;;;;;2.92;1.58;;;16.30;59.40;;;;;;4977850;28;20850;-69
2022/03/30 10:58:05;;;;;;;3.67;1.75;;;16.30;59.40;;;;;;5019342;28;20053;-69
2022/03/30 11:00:34;;;;;;;2.90;1.58;;;16.20;56.80;;;;;;5022368;28;20054;-69
2022/03/30 11:03:08;;;;;;;3.85;1.95;;;16.00;59.30;;;;;;5023974;28;20436;-69
2022/03/30 11:05:36;;;;;;;3.33;1.73;;;16.10;59.10;;;;;;5022638;28;20411;-69
2022/03/30 11:08:04;;;;;;;4.32;1.67;;;16.10;54.60;;;;;;5025171;28;20053;-69
2022/03/30 11:10:42;;;;;;;4.05;1.67;;;16.10;59.10;;;;;;5030859;28;20054;-70
2022/03/30 11:13:11;;;;;;;4.05;1.73;;;15.90;59.00;;;;;;5025085;28;20042;-70
2022/03/30 11:16:11;;;;;;;2.78;1.80;;;16.10;52.50;;;;;;5022209;28;20404;-69
2022/03/30 11:18:56;;;;;;;2.83;1.63;;;16.10;59.60;;;;;;5022446;28;20050;-70
2022/03/30 11:21:23;;;;;;;3.17;2.17;;;16.00;54.10;;;;;;5019980;28;20046;-70
2022/03/30 11:24:11;;;;;;;4.10;1.73;;;16.10;59.30;;;;;;5013284;28;20431;-70
2022/03/30 11:27:20;;;;;;;3.10;1.70;;;15.30;59.00;;;;;;5017139;28;20064;-71
2022/03/30 11:30:07;;;;;;;3.75;1.63;;;16.00;52.60;;;;;;5023995;28;20420;-68
2022/03/30 11:32:44;;;;;;;2.58;1.60;;;15.90;59.40;;;;;;5011926;28;20054;-70
2022/03/30 11:35:12;;;;;;;2.85;1.50;;;15.40;55.10;;;;;;5020546;28;20137;-70
2022/03/30 11:37:40;;;;;;;3.92;1.67;;;15.90;52.80;;;;;;5025060;28;20500;-69
2022/03/30 11:40:08;;;;;;;3.65;1.60;;;16.00;52.90;;;;;;5026066;28;20415;-70
2022/03/30 11:42:36;;;;;;;4.32;1.75;;;;;;;;;;5013291;28;20046;-69
2022/03/30 11:45:16;;;;;;;3.20;1.63;;;15.90;52.90;;;;;;5011408;28;20057;-68
2022/03/30 11:47:45;;;;;;;4.25;1.63;;;15.90;60.00;;;;;;5013406;28;20128;-69
2022/03/30 11:50:12;;;;;;;4.35;2.13;;;15.90;52.90;;;;;;5014012;28;20058;-70
2022/03/30 11:52:39;;;;;;;3.72;1.70;;;;;;;;;;5021265;28;20053;-67
2022/03/30 11:55:08;;;;;;;2.50;1.50;;;15.90;59.80;;;;;;5022247;28;20051;-69
2022/03/30 11:57:39;;;;;;;4.13;1.80;;;15.60;59.70;;;;;;5030008;28;20053;-68
2022/03/30 12:00:09;;;;;;;2.55;1.55;;;15.80;52.90;;;;;;5032663;28;20056;-68
2022/03/30 12:02:36;;;;;;;2.47;1.40;;;15.90;59.80;;;;;;5031556;28;20128;-69
2022/03/30 12:05:04;;;;;;;3.28;1.50;;;16.70;60.20;;;;;;5030898;28;20144;-69
2022/03/30 12:07:34;;;;;;;3.70;1.70;;;15.90;60.10;;;;;;5032720;28;20049;-69
2022/03/30 12:10:02;;;;;;;2.70;1.45;;;;;;;;;;5031406;28;20137;-67
2022/03/30 12:12:31;;;;;;;3.25;1.60;;;15.90;59.80;;;;;;5031533;28;20057;-68
2022/03/30 12:14:58;;;;;;;3.92;1.60;;;15.80;59.90;;;;;;5032691;28;20579;-68
2022/03/30 12:17:25;;;;;;;3.03;1.50;;;15.70;60.10;;;;;;5031564;28;20061;-69
2022/03/30 12:19:52;;;;;;;3.10;1.38;;;15.90;60.00;;;;;;5031858;28;20539;-68
2022/03/30 12:22:20;;;;;;;3.80;2.13;;;15.80;60.00;;;;;;5029452;28;20053;-68
2022/03/30 12:24:47;;;;;;;3.10;1.50;;;15.70;60.00;;;;;;5032892;28;20049;-65
2022/03/30 12:27:13;;;;;;;4.18;2.20;;;15.90;60.10;;;;;;5031471;28;20060;-65
2022/03/30 12:29:40;;;;;;;2.72;1.63;;;;;;;;;;5031277;28;20061;-68
2022/03/30 12:32:10;;;;;;;5.15;1.73;;;15.70;60.00;;;;;;5031152;28;20053;-65
2022/03/30 12:34:37;;;;;;;2.90;1.50;;;15.90;59.60;;;;;;5032452;28;20482;-65
2022/03/30 12:37:05;;;;;;;3.90;1.70;;;15.80;60.00;;;;;;5030826;28;20092;-65
2022/03/30 12:39:39;;;;;;;3.45;1.42;;;15.70;59.80;;;;;;5032475;28;20056;-65
2022/03/30 12:42:06;;;;;;;3.53;1.50;;;15.70;60.00;;;;;;5026861;28;20393;-69
2022/03/30 12:44:34;;;;;;;5.32;1.90;;;15.40;58.80;;;;;;5021012;28;20068;-68
2022/03/30 12:47:02;;;;;;;3.17;1.75;;;15.60;53.20;;;;;;5019590;28;20049;-68
2022/03/30 12:49:33;;;;;;;5.28;1.50;;;15.70;54.70;;;;;;5022366;28;20072;-68
2022/03/30 12:52:11;;;;;;;3.50;1.40;;;15.60;59.90;;;;;;5021532;28;20590;-68
2022/03/30 12:54:39;;;;;;;2.50;1.30;;;15.60;60.00;;;;;;5019936;28;20418;-68
2022/03/30 12:57:06;;;;;;;2.83;1.42;;;15.40;59.60;;;;;;5021218;28;20050;-68
2022/03/30 12:59:32;;;;;;;2.95;1.38;;;15.60;59.70;;;;;;5021510;28;20045;-69
2022/03/30 13:01:59;;;;;;;4.80;1.65;;;15.60;59.80;;;;;;5022427;28;20048;-65
2022/03/30 13:04:30;;;;;;;2.55;1.42;;;15.40;59.60;;;;;;5020814;28;20054;-68
2022/03/30 13:07:10;;;;;;;4.35;1.88;;;15.10;59.80;;;;;;5020090;28;20136;-68
2022/03/30 13:09:37;;;;;;;3.80;1.67;;;15.50;59.80;;;;;;5018169;28;20104;-68
2022/03/30 13:12:06;;;;;;;4.35;1.50;;;15.60;53.70;;;;;;5022287;28;20052;-67
2022/03/30 13:14:33;;;;;;;4.57;1.70;;;15.60;59.70;;;;;;5021673;28;20050;-69
2022/03/30 13:17:02;;;;;;;2.50;1.50;;;15.50;52.70;;;;;;5022872;28;20060;-68
2022/03/30 13:19:29;;;;;;;4.32;1.48;;;15.60;59.70;;;;;;5020780;28;20391;-69
2022/03/30 13:21:57;;;;;;;3.50;1.52;;;15.50;53.00;;;;;;5021488;28;20056;-68